createdAt,value
2022-09-09T00:01:06.404Z,5.53
2022-09-09T00:03:39.869Z,5.60
2022-09-09T00:06:14.908Z,5.50
2022-09-09T00:08:43.577Z,5.20
2022-09-09T00:11:14.340Z,5.00
2022-09-09T00:13:48.592Z,5.57
2022-09-09T00:16:20.232Z,5.28
2022-09-09T00:19:00.012Z,5.10
2022-09-09T00:21:47.690Z,5.95
2022-09-09T00:24:33.845Z,5.65
2022-09-09T00:27:04.231Z,5.30
2022-09-09T00:29:34.439Z,5.30
2022-09-09T00:32:06.718Z,5.78
2022-09-09T00:34:34.883Z,6.18
2022-09-09T00:37:03.822Z,5.80
2022-09-09T00:39:37.275Z,6.13
2022-09-09T00:42:04.710Z,6.45
2022-09-09T00:44:36.274Z,6.25
2022-09-09T00:47:10.225Z,5.97
2022-09-09T00:49:47.512Z,7.00
2022-09-09T00:52:15.063Z,5.65
2022-09-09T00:54:58.109Z,5.63
2022-09-09T00:57:32.210Z,5.75
2022-09-09T01:00:06.020Z,5.65
2022-09-09T01:02:38.947Z,5.97
2022-09-09T01:05:14.790Z,5.75
2022-09-09T01:07:47.134Z,5.72
2022-09-09T01:10:20.721Z,6.30
2022-09-09T01:12:48.967Z,5.93
2022-09-09T01:15:23.444Z,5.70
2022-09-09T01:17:56.290Z,5.65
2022-09-09T01:20:33.910Z,5.85
2022-09-09T01:23:06.232Z,7.45
2022-09-09T01:25:45.430Z,11.50
2022-09-09T01:28:28.325Z,6.57
2022-09-09T01:31:02.512Z,6.28
2022-09-09T01:33:36.503Z,6.82
2022-09-09T01:36:14.150Z,6.50
2022-09-09T01:38:48.365Z,24.30
2022-09-09T01:41:16.974Z,30.33
2022-09-09T01:43:50.624Z,24.67
2022-09-09T01:46:18.422Z,12.18
2022-09-09T01:48:47.025Z,25.10
2022-09-09T01:51:15.444Z,20.40
2022-09-09T01:53:43.515Z,8.63
2022-09-09T01:56:31.466Z,11.75
2022-09-09T01:59:05.118Z,6.65
2022-09-09T02:01:44.821Z,7.47
2022-09-09T02:04:20.241Z,11.85
2022-09-09T02:06:48.425Z,6.57
2022-09-09T02:09:24.561Z,14.55
2022-09-09T02:11:57.952Z,7.07
2022-09-09T02:14:40.283Z,7.35
2022-09-09T02:17:11.269Z,6.55
2022-09-09T02:20:04.653Z,6.75
2022-09-09T02:22:42.691Z,6.40
2022-09-09T02:25:12.890Z,6.65
2022-09-09T02:27:42.016Z,7.10
2022-09-09T02:30:10.328Z,6.30
2022-09-09T02:32:47.511Z,6.00
2022-09-09T02:35:19.476Z,6.47
2022-09-09T02:37:47.297Z,6.22
2022-09-09T02:40:19.394Z,6.07
2022-09-09T02:42:51.649Z,6.20
2022-09-09T02:45:26.128Z,6.43
2022-09-09T02:48:12.641Z,6.10
2022-09-09T02:50:51.039Z,6.47
2022-09-09T02:53:21.974Z,6.15
2022-09-09T02:55:52.094Z,5.95
2022-09-09T02:58:22.218Z,6.40
2022-09-09T03:01:02.251Z,6.95
2022-09-09T03:03:31.384Z,7.05
2022-09-09T03:06:00.699Z,6.88
2022-09-09T03:08:29.219Z,6.90
2022-09-09T03:11:02.186Z,5.43
2022-09-09T03:13:32.550Z,5.78
2022-09-09T03:16:00.936Z,5.50
2022-09-09T03:18:31.074Z,5.18
2022-09-09T03:21:00.741Z,5.55
2022-09-09T03:23:30.341Z,5.88
2022-09-09T03:26:01.130Z,5.88
2022-09-09T03:28:37.587Z,7.15
2022-09-09T03:31:06.634Z,6.00
2022-09-09T03:33:40.292Z,6.20
2022-09-09T03:36:09.561Z,5.93
2022-09-09T03:38:37.558Z,5.97
2022-09-09T03:41:07.250Z,6.70
2022-09-09T03:43:35.430Z,9.60
2022-09-09T03:46:02.949Z,5.40
2022-09-09T03:48:31.133Z,5.82
2022-09-09T03:51:02.290Z,5.68
2022-09-09T03:53:31.906Z,5.88
2022-09-09T03:56:00.894Z,5.63
2022-09-09T03:58:30.565Z,6.05
2022-09-09T04:01:07.470Z,6.93
2022-09-09T04:03:35.466Z,5.90
2022-09-09T04:06:04.512Z,5.45
2022-09-09T04:08:33.957Z,5.93
2022-09-09T04:11:06.349Z,5.57
2022-09-09T04:13:36.156Z,7.15
2022-09-09T04:16:04.941Z,15.25
2022-09-09T04:18:35.621Z,9.38
2022-09-09T04:21:05.549Z,9.02
2022-09-09T04:23:35.244Z,6.97
2022-09-09T04:26:03.375Z,5.85
2022-09-09T04:28:32.805Z,5.68
2022-09-09T04:31:10.830Z,6.80
2022-09-09T04:33:41.218Z,9.00
2022-09-09T04:36:10.282Z,10.00
2022-09-09T04:38:38.548Z,5.30
2022-09-09T04:41:06.252Z,5.65
2022-09-09T04:43:35.560Z,10.32
2022-09-09T04:46:05.883Z,6.30
2022-09-09T04:48:33.622Z,9.60
2022-09-09T04:51:06.675Z,5.30
2022-09-09T04:53:35.391Z,6.88
2022-09-09T04:56:04.053Z,5.00
2022-09-09T04:58:34.012Z,5.07
2022-09-09T05:01:05.648Z,6.40
2022-09-09T05:03:33.654Z,5.40
2022-09-09T05:06:21.020Z,5.10
2022-09-09T05:08:50.660Z,4.90
2022-09-09T05:11:24.421Z,5.05
2022-09-09T05:13:54.704Z,5.05
2022-09-09T05:16:23.852Z,5.60
2022-09-09T05:18:52.304Z,4.70
2022-09-09T05:21:22.366Z,4.22
2022-09-09T05:23:49.925Z,4.43
2022-09-09T05:26:18.318Z,4.35
2022-09-09T05:28:48.704Z,4.78
2022-09-09T05:31:17.619Z,4.10
2022-09-09T05:33:48.382Z,4.05
2022-09-09T05:36:17.698Z,3.95
2022-09-09T05:38:47.176Z,4.43
2022-09-09T05:41:18.925Z,5.70
2022-09-09T05:43:48.570Z,3.28
2022-09-09T05:46:17.742Z,3.80
2022-09-09T05:48:47.468Z,3.75
2022-09-09T05:51:16.877Z,4.30
2022-09-09T05:53:44.847Z,4.30
2022-09-09T05:56:15.288Z,4.70
2022-09-09T05:58:50.244Z,4.00
2022-09-09T06:01:24.301Z,5.35
2022-09-09T06:03:53.276Z,7.80
2022-09-09T06:06:27.104Z,3.85
2022-09-09T06:08:59.127Z,4.35
2022-09-09T06:11:32.418Z,4.32
2022-09-09T06:14:01.399Z,3.83
2022-09-09T06:16:32.540Z,3.95
2022-09-09T06:19:00.793Z,4.43
2022-09-09T06:21:31.224Z,3.45
2022-09-09T06:24:01.191Z,5.40
2022-09-09T06:26:31.555Z,5.43
2022-09-09T06:28:59.799Z,4.70
2022-09-09T06:31:31.324Z,3.90
2022-09-09T06:36:32.270Z,4.03
2022-09-09T06:38:59.972Z,4.55
2022-09-09T06:41:28.790Z,4.95
2022-09-09T06:43:58.468Z,4.40
2022-09-09T06:46:36.735Z,4.28
2022-09-09T06:49:04.350Z,4.72
2022-09-09T06:51:32.816Z,4.70
2022-09-09T06:54:01.289Z,4.97
2022-09-09T06:56:30.076Z,3.78
2022-09-09T06:59:00.263Z,5.43
2022-09-09T07:01:31.589Z,4.18
2022-09-09T07:04:02.985Z,5.47
2022-09-09T07:06:35.461Z,4.05
2022-09-09T07:09:05.284Z,4.32
2022-09-09T07:11:34.311Z,4.45
2022-09-09T07:14:02.448Z,5.00
2022-09-09T07:16:32.278Z,5.32
2022-09-09T07:19:01.698Z,4.88
2022-09-09T07:21:30.453Z,7.95
2022-09-09T07:23:58.402Z,5.30
2022-09-09T07:26:27.592Z,5.80
2022-09-09T07:28:57.116Z,7.18
2022-09-09T07:31:31.024Z,4.80
2022-09-09T07:33:59.295Z,10.02
2022-09-09T07:36:32.695Z,5.30
2022-09-09T07:39:03.386Z,5.97
2022-09-09T07:41:35.289Z,5.28
2022-09-09T07:44:07.726Z,4.95
2022-09-09T07:46:37.262Z,5.18
2022-09-09T07:49:05.269Z,5.72
2022-09-09T07:51:36.956Z,4.95
2022-09-09T07:54:06.042Z,7.20
2022-09-09T07:56:34.528Z,5.70
2022-09-09T07:59:03.052Z,4.97
2022-09-09T08:01:57.930Z,5.70
2022-09-09T08:04:29.218Z,5.82
2022-09-09T08:06:58.501Z,5.93
2022-09-09T08:09:29.693Z,7.82
2022-09-09T08:12:07.868Z,6.22
2022-09-09T08:14:35.878Z,6.85
2022-09-09T08:17:03.334Z,5.60
2022-09-09T08:19:35.121Z,4.82
2022-09-09T08:22:04.404Z,4.80
2022-09-09T08:24:34.322Z,6.60
2022-09-09T08:27:02.405Z,6.32
2022-09-09T08:29:30.423Z,4.97
2022-09-09T08:31:59.432Z,5.10
2022-09-09T08:34:29.114Z,4.93
2022-09-09T08:36:58.666Z,11.52
2022-09-09T08:39:34.164Z,4.40
2022-09-09T08:42:01.790Z,5.68
2022-09-09T08:44:32.015Z,5.20
2022-09-09T08:47:02.943Z,7.25
2022-09-09T08:49:39.918Z,7.18
2022-09-09T08:52:17.023Z,8.85
2022-09-09T08:54:52.045Z,6.13
2022-09-09T08:57:27.893Z,5.00
2022-09-09T08:59:57.644Z,4.30
2022-09-09T09:02:28.664Z,4.60
2022-09-09T09:05:07.319Z,6.03
2022-09-09T09:07:49.633Z,6.80
2022-09-09T09:10:41.522Z,4.55
2022-09-09T09:13:15.118Z,5.20
2022-09-09T09:15:43.969Z,4.93
2022-09-09T09:18:13.651Z,4.88
2022-09-09T09:21:02.532Z,5.53
2022-09-09T09:23:36.472Z,6.28
2022-09-09T09:26:09.277Z,7.20
2022-09-09T09:28:38.399Z,7.60
2022-09-09T09:31:15.169Z,9.45
2022-09-09T09:33:47.600Z,5.40
2022-09-09T09:36:18.402Z,6.63
2022-09-09T09:41:47.401Z,25.33
2022-09-09T09:44:43.131Z,8.25
2022-09-09T09:47:15.505Z,10.65
2022-09-09T09:49:56.918Z,26.52
2022-09-09T09:52:26.359Z,12.38
2022-09-09T09:54:54.867Z,6.07
2022-09-09T09:57:26.243Z,15.05
2022-09-09T10:00:05.127Z,12.00
2022-09-09T10:02:44.345Z,6.65
2022-09-09T10:05:26.825Z,17.92
2022-09-09T10:08:17.689Z,9.07
2022-09-09T10:11:11.427Z,10.90
2022-09-09T10:13:39.152Z,36.15
2022-09-09T10:16:23.123Z,13.77
2022-09-09T10:19:02.784Z,7.93
2022-09-09T10:21:38.868Z,5.35
2022-09-09T10:24:25.106Z,5.70
2022-09-09T10:27:13.837Z,6.30
2022-09-09T10:29:45.033Z,14.63
2022-09-09T10:32:15.353Z,10.52
2022-09-09T10:34:46.014Z,7.60
2022-09-09T10:37:24.462Z,5.13
2022-09-09T10:39:59.474Z,9.93
2022-09-09T10:42:31.050Z,9.02
2022-09-09T10:44:58.552Z,19.38
2022-09-09T10:47:29.491Z,8.13
2022-09-09T10:50:13.695Z,5.93
2022-09-09T10:52:44.653Z,6.32
2022-09-09T10:55:12.062Z,9.20
2022-09-09T10:57:42.934Z,5.80
2022-09-09T11:00:25.701Z,5.20
2022-09-09T11:02:56.939Z,5.53
2022-09-09T11:05:37.798Z,7.28
2022-09-09T11:08:17.499Z,5.38
2022-09-09T11:11:04.610Z,4.78
2022-09-09T11:13:41.704Z,9.13
2022-09-09T11:16:24.712Z,5.07
2022-09-09T11:18:52.606Z,7.00
2022-09-09T11:21:30.986Z,14.18
2022-09-09T11:24:01.623Z,5.85
2022-09-09T11:26:46.273Z,4.72
2022-09-09T11:29:14.665Z,4.60
2022-09-09T11:31:56.984Z,6.80
2022-09-09T11:37:08.969Z,5.10
2022-09-09T11:39:36.447Z,6.20
2022-09-09T11:42:16.224Z,5.82
2022-09-09T11:44:44.043Z,5.22
2022-09-09T11:47:31.215Z,5.45
2022-09-09T11:50:17.110Z,5.50
2022-09-09T11:52:49.008Z,6.18
2022-09-09T11:55:29.061Z,5.40
2022-09-09T11:58:01.182Z,7.82
2022-09-09T12:00:38.898Z,5.57
2022-09-09T12:03:07.401Z,6.00
2022-09-09T12:05:53.790Z,5.30
2022-09-09T12:08:26.774Z,5.95
2022-09-09T12:10:57.145Z,8.15
2022-09-09T12:13:28.547Z,7.80
2022-09-09T12:15:57.347Z,7.75
2022-09-09T12:18:35.009Z,6.00
2022-09-09T12:21:05.702Z,7.75
2022-09-09T12:23:37.549Z,5.82
2022-09-09T12:26:05.259Z,6.47
2022-09-09T12:28:32.893Z,6.32
2022-09-09T12:31:03.917Z,7.45
2022-09-09T12:33:38.629Z,10.27
2022-09-09T12:36:07.967Z,5.78
2022-09-09T12:38:40.101Z,7.43
2022-09-09T12:41:07.794Z,9.43
2022-09-09T12:43:35.476Z,12.38
2022-09-09T12:46:05.364Z,9.65
2022-09-09T12:48:37.989Z,9.07
2022-09-09T12:51:06.937Z,9.40
2022-09-09T12:53:35.948Z,6.93
2022-09-09T12:56:08.443Z,6.68
2022-09-09T12:58:37.709Z,10.32
2022-09-09T13:01:06.308Z,9.10
2022-09-09T13:03:35.154Z,7.00
2022-09-09T13:06:19.590Z,9.68
2022-09-09T13:11:19.807Z,5.88
2022-09-09T13:13:52.323Z,8.73
2022-09-09T13:16:25.080Z,6.10
2022-09-09T13:18:52.873Z,7.90
2022-09-09T13:21:20.794Z,6.55
2022-09-09T13:23:53.161Z,8.65
2022-09-09T13:26:27.574Z,8.70
2022-09-09T13:28:55.819Z,6.22
2022-09-09T13:31:25.499Z,7.43
2022-09-09T13:33:54.189Z,6.63
2022-09-09T13:36:30.488Z,6.18
2022-09-09T13:39:00.578Z,5.93
2022-09-09T13:41:32.019Z,6.97
2022-09-09T13:43:59.880Z,6.47
2022-09-09T13:46:31.194Z,6.47
2022-09-09T13:48:59.608Z,6.22
2022-09-09T13:51:32.819Z,6.43
2022-09-09T13:54:01.512Z,6.68
2022-09-09T13:56:32.964Z,7.22
2022-09-09T13:59:00.603Z,6.60
2022-09-09T14:01:29.675Z,7.35
2022-09-09T14:03:57.665Z,8.02
2022-09-09T14:06:25.590Z,6.70
2022-09-09T14:08:53.473Z,6.05
2022-09-09T14:11:22.378Z,6.78
2022-09-09T14:13:52.936Z,6.15
2022-09-09T14:16:22.481Z,6.53
2022-09-09T14:18:50.007Z,7.90
2022-09-09T14:21:17.500Z,7.80
2022-09-09T14:23:44.908Z,11.00
2022-09-09T14:26:12.283Z,7.28
2022-09-09T14:28:56.720Z,8.05
2022-09-09T14:31:24.833Z,6.13
2022-09-09T14:33:52.361Z,10.07
2022-09-09T14:36:20.278Z,6.65
2022-09-09T14:38:47.743Z,9.00
2022-09-09T14:41:19.343Z,7.13
2022-09-09T14:43:47.443Z,7.00
2022-09-09T14:46:16.040Z,7.20
2022-09-09T14:48:44.925Z,7.60
2022-09-09T14:51:14.373Z,8.18
2022-09-09T14:53:42.306Z,8.05
2022-09-09T14:56:11.958Z,8.18
2022-09-09T14:58:39.790Z,10.13
2022-09-09T15:01:07.997Z,7.78
2022-09-09T15:03:35.671Z,7.43
2022-09-09T15:06:07.322Z,7.88
2022-09-09T15:08:37.150Z,7.60
2022-09-09T15:11:14.120Z,7.28
2022-09-09T15:13:43.315Z,8.02
2022-09-09T15:16:11.977Z,7.20
2022-09-09T15:18:43.840Z,7.40
2022-09-09T15:21:11.834Z,10.93
2022-09-09T15:23:39.682Z,8.48
2022-09-09T15:26:07.690Z,7.10
2022-09-09T15:28:38.655Z,7.47
2022-09-09T15:31:08.316Z,8.38
2022-09-09T15:33:37.790Z,8.80
2022-09-09T15:36:21.396Z,9.32
2022-09-09T15:38:48.842Z,8.75
2022-09-09T15:41:16.843Z,7.10
2022-09-09T15:44:02.746Z,7.65
2022-09-09T15:46:33.349Z,6.97
2022-09-09T15:49:05.579Z,7.43
2022-09-09T15:51:49.005Z,7.95
2022-09-09T15:54:18.538Z,7.35
2022-09-09T15:56:47.470Z,8.65
2022-09-09T15:59:15.761Z,8.60
2022-09-09T16:01:44.126Z,7.88
2022-09-09T16:04:11.788Z,9.02
2022-09-09T16:06:40.095Z,8.23
2022-09-09T16:09:08.672Z,7.97
2022-09-09T16:11:37.905Z,8.30
2022-09-09T16:14:06.437Z,8.05
2022-09-09T16:16:33.914Z,8.40
2022-09-09T16:19:02.468Z,7.72
2022-09-09T16:21:31.310Z,7.43
2022-09-09T16:24:00.526Z,7.53
2022-09-09T16:26:28.682Z,7.47
2022-09-09T16:28:56.278Z,7.90
2022-09-09T16:31:24.921Z,8.02
2022-09-09T16:33:52.907Z,8.48
2022-09-09T16:36:24.982Z,7.72
2022-09-09T16:38:56.203Z,8.65
2022-09-09T16:41:23.633Z,10.60
2022-09-09T16:43:55.113Z,11.02
2022-09-09T16:46:23.754Z,10.40
2022-09-09T16:48:51.704Z,13.70
2022-09-09T16:51:26.567Z,12.85
2022-09-09T16:53:54.804Z,10.88
2022-09-09T16:56:25.486Z,12.13
2022-09-09T16:58:56.989Z,11.77
2022-09-09T17:01:25.143Z,11.48
2022-09-09T17:04:00.205Z,10.50
2022-09-09T17:06:28.635Z,10.93
2022-09-09T17:09:02.341Z,10.88
2022-09-09T17:11:30.658Z,14.93
2022-09-09T17:14:01.622Z,13.82
2022-09-09T17:16:31.335Z,10.48
2022-09-09T17:18:59.721Z,9.80
2022-09-09T17:21:28.284Z,9.20
2022-09-09T17:23:56.599Z,9.27
2022-09-09T17:26:25.076Z,10.70
2022-09-09T17:28:57.352Z,11.70
2022-09-09T17:31:27.267Z,13.43
2022-09-09T17:33:56.765Z,13.15
2022-09-09T17:36:31.563Z,10.48
2022-09-09T17:39:00.037Z,9.15
2022-09-09T17:41:35.751Z,13.02
2022-09-09T17:44:04.884Z,12.50
2022-09-09T17:46:35.401Z,9.63
2022-09-09T17:49:05.590Z,10.40
2022-09-09T17:51:33.439Z,12.38
2022-09-09T17:54:11.253Z,13.20
2022-09-09T17:56:39.851Z,11.30
2022-09-09T17:59:10.587Z,10.52
2022-09-09T18:01:39.618Z,11.38
2022-09-09T18:04:08.940Z,11.38
2022-09-09T18:06:38.234Z,11.52
2022-09-09T18:09:10.216Z,12.05
2022-09-09T18:11:42.597Z,10.15
2022-09-09T18:14:12.819Z,10.30
2022-09-09T18:16:41.054Z,10.18
2022-09-09T18:19:09.562Z,11.57
2022-09-09T18:21:37.424Z,12.63
2022-09-09T18:24:06.363Z,11.20
2022-09-09T18:26:34.241Z,11.25
2022-09-09T18:29:06.432Z,11.23
2022-09-09T18:31:37.511Z,11.40
2022-09-09T18:34:06.631Z,13.77
2022-09-09T18:36:35.895Z,14.10
2022-09-09T18:39:04.268Z,13.00
2022-09-09T18:41:33.469Z,13.00
2022-09-09T18:44:05.793Z,12.98
2022-09-09T18:46:37.523Z,13.10
2022-09-09T18:49:05.892Z,13.20
2022-09-09T18:51:35.387Z,12.60
2022-09-09T18:54:04.561Z,14.23
2022-09-09T18:56:32.472Z,12.10
2022-09-09T18:59:01.011Z,11.73
2022-09-09T19:01:31.433Z,13.30
2022-09-09T19:03:59.376Z,12.90
2022-09-09T19:06:28.305Z,14.60
2022-09-09T19:08:59.127Z,14.20
2022-09-09T19:11:30.787Z,15.23
2022-09-09T19:14:00.312Z,12.98
2022-09-09T19:16:29.455Z,13.20
2022-09-09T19:18:59.268Z,10.35
2022-09-09T19:21:28.099Z,11.10
2022-09-09T19:24:08.949Z,11.38
2022-09-09T19:26:40.618Z,12.63
2022-09-09T19:29:10.234Z,15.48
2022-09-09T19:31:38.260Z,12.43
2022-09-09T19:34:06.038Z,11.13
2022-09-09T19:36:33.694Z,11.27
2022-09-09T19:39:01.887Z,16.33
2022-09-09T19:41:31.484Z,19.33
2022-09-09T19:44:01.912Z,10.60
2022-09-09T19:46:31.551Z,11.52
2022-09-09T19:49:01.017Z,11.25
2022-09-09T19:51:29.654Z,11.75
2022-09-09T19:54:03.053Z,12.95
2022-09-09T19:56:31.115Z,11.50
2022-09-09T19:58:58.607Z,10.93
2022-09-09T20:01:27.478Z,13.48
2022-09-09T20:03:56.955Z,14.85
2022-09-09T20:06:26.643Z,14.55
2022-09-09T20:08:54.221Z,13.93
2022-09-09T20:11:21.738Z,12.55
2022-09-09T20:13:50.059Z,9.95
2022-09-09T20:16:24.601Z,10.63
2022-09-09T20:18:56.597Z,10.48
2022-09-09T20:21:26.193Z,10.35
2022-09-09T20:23:53.934Z,12.43
2022-09-09T20:26:22.700Z,11.65
2022-09-09T20:28:51.134Z,11.30
2022-09-09T20:31:20.165Z,10.88
2022-09-09T20:33:48.131Z,12.70
2022-09-09T20:36:17.615Z,12.15
2022-09-09T20:38:46.969Z,11.95
2022-09-09T20:41:18.492Z,12.50
2022-09-09T20:43:49.443Z,12.93
2022-09-09T20:46:20.913Z,13.55
2022-09-09T20:48:50.341Z,12.95
2022-09-09T20:51:19.756Z,13.30
2022-09-09T20:53:47.562Z,13.85
2022-09-09T20:56:18.142Z,13.75
2022-09-09T20:58:45.565Z,13.82
2022-09-09T21:01:15.886Z,15.50
2022-09-09T21:03:43.361Z,12.90
2022-09-09T21:06:11.184Z,14.68
2022-09-09T21:08:38.705Z,13.25
2022-09-09T21:11:06.279Z,13.25
2022-09-09T21:13:34.750Z,12.65
2022-09-09T21:16:02.260Z,13.40
2022-09-09T21:18:29.978Z,13.70
2022-09-09T21:20:57.539Z,14.88
2022-09-09T21:23:25.968Z,13.02
2022-09-09T21:25:53.348Z,13.88
2022-09-09T21:28:21.687Z,12.32
2022-09-09T21:30:55.046Z,11.57
2022-09-09T21:33:23.463Z,13.27
2022-09-09T21:35:50.901Z,13.27
2022-09-09T21:38:19.784Z,11.68
2022-09-09T21:40:50.219Z,11.18
2022-09-09T21:43:18.674Z,10.63
2022-09-09T21:45:46.370Z,12.40
2022-09-09T21:48:15.264Z,12.10
2022-09-09T21:50:46.023Z,11.85
2022-09-09T21:53:14.307Z,11.30
2022-09-09T21:55:42.374Z,10.63
2022-09-09T21:58:10.426Z,9.93
2022-09-09T22:00:37.882Z,14.57
2022-09-09T22:03:05.379Z,11.15
2022-09-09T22:05:32.813Z,10.25
2022-09-09T22:08:00.183Z,10.27
2022-09-09T22:10:27.741Z,9.63
2022-09-09T22:12:55.151Z,10.30
2022-09-09T22:15:22.603Z,11.63
2022-09-09T22:17:50.040Z,11.68
2022-09-09T22:20:17.473Z,11.18
2022-09-09T22:22:44.950Z,13.98
2022-09-09T22:25:12.309Z,10.82
2022-09-09T22:27:40.273Z,11.00
2022-09-09T22:30:08.012Z,13.35
2022-09-09T22:32:35.458Z,12.95
2022-09-09T22:35:04.621Z,10.73
2022-09-09T22:37:34.313Z,10.35
2022-09-09T22:40:01.903Z,10.68
2022-09-09T22:42:30.449Z,11.18
2022-09-09T22:44:58.051Z,11.32
2022-09-09T22:47:25.394Z,11.38
2022-09-09T22:49:52.788Z,11.57
2022-09-09T22:52:20.268Z,11.95
2022-09-09T22:54:48.118Z,11.57
2022-09-09T22:57:15.502Z,13.20
2022-09-09T22:59:43.120Z,12.50
2022-09-09T23:02:10.502Z,13.25
2022-09-09T23:04:39.245Z,14.13
2022-09-09T23:07:08.024Z,12.40
2022-09-09T23:09:35.417Z,12.18
2022-09-09T23:12:04.497Z,13.18
2022-09-09T23:14:33.059Z,14.18
2022-09-09T23:17:02.307Z,13.98
2022-09-09T23:19:29.973Z,13.43
2022-09-09T23:21:58.319Z,14.02
2022-09-09T23:24:26.208Z,14.52
2022-09-09T23:26:53.635Z,13.95
2022-09-09T23:29:21.545Z,14.48
2022-09-09T23:31:48.999Z,14.13
2022-09-09T23:34:16.547Z,13.85
2022-09-09T23:36:44.018Z,14.40
2022-09-09T23:39:13.175Z,14.85
2022-09-09T23:41:40.558Z,15.50
2022-09-09T23:44:07.965Z,15.50
2022-09-09T23:46:35.993Z,15.57
2022-09-09T23:49:03.839Z,16.20
2022-09-09T23:51:31.804Z,15.52
2022-09-09T23:54:00.534Z,15.90
2022-09-09T23:56:29.592Z,15.35
2022-09-09T23:58:57.025Z,15.73
